Terminal Aerodrome Forecast
Issued by NWS

Home | Current Version | Previous Version | Text Only | Print | Product List | Glossary On
Versions: 1 2 3 4 5 6 7 8 9 10 11 12 13 14 15 16
996
FTUS45 KRIW 291727
TAFRKS
TAF
KRKS 291727Z 2918/3018 07009KT P6SM SCT080
     FM292300 08008KT P6SM BKN090
     FM300400 08007KT P6SM SCT100=

USA.gov is the U.S. government's official web portal to all federal, state and local government web resources and services.